Time;durP1;ratioP1;P1;durP2;ratioP2;P2;SDS_P1;SDS_P2;PMS_P1;PMS_P2;Temp;Humidity;BMP_temperature;BMP_pressure;BME280_temperature;BME280_humidity;BME280_pressure;Samples;Min_cycle;Max_cycle;Signal;HPM_P1;HPM_P2
2023/09/07 00:01:55;;;;;;;43.13;5.00;;;16.40;1.00;;;;;;5033244;28;20927;-81
2023/09/07 00:04:29;;;;;;;41.90;5.83;;;16.30;1.00;;;;;;5031490;28;20519;-81
2023/09/07 00:07:11;;;;;;;43.00;6.00;;;16.30;1.00;;;;;;5026476;28;20186;-82
2023/09/07 00:09:53;;;;;;;42.00;5.23;;;16.20;1.00;;;;;;5030044;28;20452;-81
2023/09/07 00:12:29;;;;;;;41.30;4.87;;;16.20;1.00;;;;;;5026411;28;20548;-80
2023/09/07 00:15:00;;;;;;;45.87;4.57;;;16.20;1.00;;;;;;5020496;28;20469;-80
2023/09/07 00:17:25;;;;;;;39.47;4.93;;;16.10;1.00;;;;;;5025722;28;20396;-80
2023/09/07 00:19:56;;;;;;;45.43;5.17;;;16.10;1.00;;;;;;5034001;28;20452;-80
2023/09/07 00:22:29;;;;;;;39.40;4.60;;;16.00;1.00;;;;;;5031497;28;20666;-80
2023/09/07 00:24:54;;;;;;;41.37;5.10;;;16.00;1.00;;;;;;5029908;28;20949;-80
2023/09/07 00:27:35;;;;;;;42.33;4.60;;;16.00;1.00;;;;;;5016367;28;20496;-80
2023/09/07 00:30:22;;;;;;;43.13;5.20;;;16.00;1.00;;;;;;5014667;28;20175;-80
2023/09/07 00:33:22;;;;;;;47.30;5.83;;;15.90;1.00;;;;;;5035235;28;20392;-80
2023/09/07 00:35:53;;;;;;;40.00;4.93;;;15.90;1.00;;;;;;5023988;28;20496;-80
2023/09/07 00:38:35;;;;;;;43.70;5.50;;;15.90;1.00;;;;;;5028706;28;20924;-80
2023/09/07 00:41:17;;;;;;;49.13;4.67;;;15.90;1.00;;;;;;5034879;28;20429;-80
2023/09/07 00:43:53;;;;;;;42.87;4.73;;;15.80;1.00;;;;;;5028619;28;20437;-81
2023/09/07 00:46:41;;;;;;;41.73;4.83;;;15.80;1.00;;;;;;5027201;28;20442;-80
2023/09/07 00:49:24;;;;;;;45.33;5.13;;;15.80;1.00;;;;;;5024383;28;20470;-80
2023/09/07 00:52:06;;;;;;;39.80;5.20;;;15.80;1.00;;;;;;5027767;28;20406;-80
2023/09/07 00:54:42;;;;;;;41.40;5.37;;;15.70;1.00;;;;;;5032074;28;20465;-80
2023/09/07 00:57:17;;;;;;;40.43;4.83;;;15.90;1.00;;;;;;5024619;28;20435;-81
2023/09/07 01:00:11;;;;;;;41.50;5.00;;;15.80;1.00;;;;;;5034650;28;20427;-81
2023/09/07 01:02:58;;;;;;;43.17;5.10;;;15.60;1.00;;;;;;5031870;28;20411;-81
2023/09/07 01:06:10;;;;;;;45.33;5.60;;;15.60;1.00;;;;;;5014838;28;20399;-81
2023/09/07 01:09:10;;;;;;;41.67;5.00;;;15.60;1.00;;;;;;5022858;28;20443;-80
2023/09/07 01:11:37;;;;;;;45.23;5.10;;;15.40;1.00;;;;;;5031108;28;20914;-80
2023/09/07 01:14:05;;;;;;;51.27;5.47;;;15.50;1.00;;;;;;5022335;28;20480;-80
2023/09/07 01:16:53;;;;;;;41.37;5.40;;;15.40;1.00;;;;;;5020973;28;20441;-81
2023/09/07 01:19:49;;;;;;;43.40;4.63;;;15.30;1.00;;;;;;5031707;28;20420;-81
2023/09/07 01:22:41;;;;;;;43.30;5.10;;;15.10;1.00;;;;;;5017827;28;20463;-81
2023/09/07 01:25:11;;;;;;;40.30;5.23;;;15.30;1.00;;;;;;5030196;28;20440;-81
2023/09/07 01:27:41;;;;;;;39.30;4.63;;;15.20;1.00;;;;;;5015511;28;20992;-81
2023/09/07 01:30:08;;;;;;;43.07;4.93;;;15.30;1.00;;;;;;5014175;28;20401;-81
2023/09/07 01:32:35;;;;;;;43.20;5.20;;;15.00;1.00;;;;;;5026692;28;20421;-80
2023/09/07 01:35:04;;;;;;;41.50;5.10;;;15.10;1.00;;;;;;5028225;28;20428;-81
2023/09/07 01:37:30;;;;;;;43.70;5.53;;;15.00;1.00;;;;;;5032520;28;20394;-81
2023/09/07 01:40:11;;;;;;;41.00;5.10;;;15.00;1.00;;;;;;5024313;28;20436;-81
2023/09/07 01:42:41;;;;;;;43.87;5.60;;;14.90;1.00;;;;;;5024243;28;20437;-81
2023/09/07 01:45:11;;;;;;;39.50;5.00;;;14.90;1.00;;;;;;5014802;28;20394;-81
2023/09/07 01:47:53;;;;;;;44.20;5.10;;;14.80;1.00;;;;;;5030374;28;20426;-82
2023/09/07 01:50:25;;;;;;;43.00;5.20;;;14.80;1.00;;;;;;5012362;28;20439;-81
2023/09/07 01:52:53;;;;;;;42.60;5.10;;;14.80;1.00;;;;;;5031265;28;20426;-81
2023/09/07 01:55:59;;;;;;;40.47;5.10;;;14.70;1.00;;;;;;5033553;28;20412;-81
2023/09/07 01:58:41;;;;;;;58.60;5.67;;;14.60;1.00;;;;;;5024922;28;20488;-79
2023/09/07 02:01:07;;;;;;;39.80;4.97;;;14.60;1.00;;;;;;5021164;28;20385;-80
2023/09/07 02:03:35;;;;;;;42.90;5.40;;;14.60;1.00;;;;;;5019909;28;20422;-80
2023/09/07 02:06:05;;;;;;;45.37;5.70;;;14.50;1.00;;;;;;5033245;28;20200;-80
2023/09/07 02:08:41;;;;;;;40.20;5.23;;;14.50;1.00;;;;;;5031774;28;20463;-80
2023/09/07 02:11:58;;;;;;;39.97;5.00;;;14.50;1.00;;;;;;5021647;28;20783;-80
2023/09/07 02:14:29;;;;;;;40.03;5.40;;;14.40;1.00;;;;;;5015710;28;20426;-81
2023/09/07 02:17:34;;;;;;;40.93;5.67;;;14.40;1.00;;;;;;5015766;28;20923;-81
2023/09/07 02:20:11;;;;;;;42.73;6.03;;;14.40;1.00;;;;;;5029523;28;20428;-82
2023/09/07 02:22:41;;;;;;;42.50;5.50;;;14.30;1.00;;;;;;5027925;28;20961;-81
2023/09/07 02:25:11;;;;;;;46.00;5.73;;;14.40;1.00;;;;;;5024541;28;20428;-81
2023/09/07 02:27:37;;;;;;;43.53;5.90;;;14.30;1.00;;;;;;5029572;28;20957;-81
2023/09/07 02:30:05;;;;;;;43.73;6.27;;;14.30;1.00;;;;;;5035049;28;20425;-80
2023/09/07 02:32:42;;;;;;;43.70;5.83;;;14.30;1.00;;;;;;5028277;28;20942;-80
2023/09/07 02:35:23;;;;;;;42.57;5.87;;;14.30;1.00;;;;;;5032692;28;20390;-80
2023/09/07 02:37:59;;;;;;;45.00;6.90;;;14.30;1.00;;;;;;5024722;28;20438;-80
2023/09/07 02:40:46;;;;;;;48.33;6.00;;;14.30;1.00;;;;;;5036862;28;20409;-80
2023/09/07 02:44:04;;;;;;;42.43;6.40;;;14.20;1.00;;;;;;5016610;28;20407;-80
2023/09/07 02:46:35;;;;;;;41.40;5.77;;;14.20;1.00;;;;;;5034579;28;20457;-79
2023/09/07 02:49:11;;;;;;;41.73;5.40;;;14.20;1.00;;;;;;5035873;28;20425;-81
2023/09/07 02:51:47;;;;;;;44.13;6.00;;;14.20;1.00;;;;;;5027979;28;20398;-80
2023/09/07 02:54:41;;;;;;;42.20;5.90;;;14.20;1.00;;;;;;5031926;28;20446;-80
2023/09/07 02:57:17;;;;;;;45.13;6.40;;;14.20;1.00;;;;;;5026141;28;20398;-80
2023/09/07 02:59:43;;;;;;;43.17;6.10;;;14.80;1.00;;;;;;5032330;28;20425;-80
2023/09/07 03:02:23;;;;;;;42.80;5.70;;;14.10;1.00;;;;;;5021604;28;20393;-80
2023/09/07 03:04:54;;;;;;;45.90;6.73;;;14.20;1.00;;;;;;5034946;28;20292;-80
2023/09/07 03:07:23;;;;;;;43.97;6.77;;;14.10;1.00;;;;;;5020692;28;20469;-80
2023/09/07 03:09:53;;;;;;;43.13;6.10;;;14.10;1.00;;;;;;5026294;28;20498;-80
2023/09/07 03:12:18;;;;;;;44.50;6.30;;;14.10;1.00;;;;;;5032319;28;20443;-81
2023/09/07 03:18:34;;;;;;;41.53;5.80;;;14.10;1.00;;;;;;5020105;28;20219;-80
2023/09/07 03:21:28;;;;;;;46.17;5.40;;;14.10;1.00;;;;;;5024277;28;20465;-82
2023/09/07 03:23:59;;;;;;;42.20;5.60;;;14.10;1.00;;;;;;5035834;28;20493;-81
2023/09/07 03:26:29;;;;;;;41.47;6.13;;;14.00;1.00;;;;;;5029174;28;20477;-81
2023/09/07 03:29:11;;;;;;;42.00;5.23;;;14.20;1.00;;;;;;5035530;28;20451;-80
2023/09/07 03:35:00;;;;;;;44.90;6.90;;;14.10;1.00;;;;;;5024159;28;20435;-80
2023/09/07 03:37:37;;;;;;;42.97;5.80;;;14.10;1.00;;;;;;5028873;28;20431;-80
2023/09/07 03:40:05;;;;;;;42.87;5.90;;;14.20;1.00;;;;;;5034665;28;20424;-80
2023/09/07 03:42:42;;;;;;;43.43;6.10;;;14.20;1.00;;;;;;5030760;28;20410;-83
2023/09/07 03:48:29;;;;;;;42.57;6.30;;;14.10;1.00;;;;;;5016383;28;20439;-82
2023/09/07 03:51:16;;;;;;;54.77;6.63;;;14.10;1.00;;;;;;5024084;28;20790;-82
2023/09/07 03:53:53;;;;;;;48.77;6.13;;;14.00;1.00;;;;;;5036168;28;20543;-82
2023/09/07 03:56:29;;;;;;;61.83;6.77;;;14.00;1.00;;;;;;5031464;28;20881;-82
2023/09/07 04:02:17;;;;;;;46.33;6.10;;;14.00;1.00;;;;;;5041162;28;20393;-87
2023/09/07 04:18:17;;;;;;;41.63;6.07;;;13.80;1.00;;;;;;5024011;28;20981;-87
2023/09/07 04:24:05;;;;;;;49.00;6.70;;;13.80;1.00;;;;;;5035980;28;20561;-87
2023/09/07 04:26:53;;;;;;;43.67;5.90;;;13.80;1.00;;;;;;5030978;28;20463;-87
2023/09/07 04:32:41;;;;;;;47.67;6.40;;;13.60;1.00;;;;;;5015051;28;20443;-83
2023/09/07 04:38:29;;;;;;;55.10;7.03;;;13.60;1.00;;;;;;5028034;28;20211;-82
2023/09/07 04:41:46;;;;;;;44.73;6.27;;;13.60;1.00;;;;;;5025651;28;20411;-82
2023/09/07 04:44:17;;;;;;;45.13;5.97;;;;;;;;;;5027942;28;20473;-82
2023/09/07 04:46:47;;;;;;;43.83;6.43;;;13.60;1.00;;;;;;5016714;28;20419;-82
2023/09/07 04:49:29;;;;;;;45.03;6.37;;;13.60;1.00;;;;;;5034069;28;20477;-82
2023/09/07 04:52:05;;;;;;;43.93;6.40;;;13.60;1.00;;;;;;5023016;28;20561;-83
2023/09/07 04:54:31;;;;;;;45.90;6.63;;;13.60;1.00;;;;;;5021541;28;20476;-84
2023/09/07 05:00:46;;;;;;;45.53;6.87;;;13.60;1.00;;;;;;5032424;28;20215;-86
2023/09/07 05:06:37;;;;;;;46.83;6.07;;;13.60;1.00;;;;;;5035179;28;20445;-86
2023/09/07 05:09:03;;;;;;;44.40;7.40;;;13.50;1.00;;;;;;5018279;28;20410;-87
2023/09/07 05:11:41;;;;;;;44.63;7.10;;;13.60;1.00;;;;;;5044013;28;20431;-87
2023/09/07 05:17:28;;;;;;;43.57;6.33;;;13.70;1.00;;;;;;5014748;28;20926;-84
2023/09/07 05:30:23;;;;;;;51.03;6.97;;;13.90;1.00;;;;;;5029028;28;20411;-87
2023/09/07 05:33:11;;;;;;;46.43;7.10;;;13.80;2.10;;;;;;5022864;28;20436;-87
2023/09/07 05:39:05;;;;;;;44.93;7.40;;;14.00;4.40;;;;;;5027844;28;20985;-88
2023/09/07 05:42:04;;;;;;;47.10;7.70;;;14.10;6.80;;;;;;5028935;28;20942;-87
2023/09/07 05:47:52;;;;;;;50.10;7.70;;;14.20;5.60;;;;;;5031304;28;20869;-86
2023/09/07 05:53:39;;;;;;;44.73;7.87;;;14.40;7.30;;;;;;5027386;28;20945;-87
2023/09/07 05:56:17;;;;;;;52.40;8.00;;;14.50;6.70;;;;;;5031049;28;20435;-87
2023/09/07 05:59:04;;;;;;;49.43;7.73;;;14.80;6.90;;;;;;5015340;28;20743;-85
2023/09/07 06:01:41;;;;;;;46.03;7.20;;;14.60;7.50;;;;;;5019462;28;20632;-83
2023/09/07 06:07:35;;;;;;;48.27;8.30;;;14.80;8.50;;;;;;5015466;28;20455;-83
2023/09/07 06:10:29;;;;;;;55.00;7.50;;;15.00;5.50;;;;;;5016286;28;20432;-84
2023/09/07 06:13:34;;;;;;;47.43;7.63;;;15.00;7.80;;;;;;5023405;28;20991;-83
2023/09/07 06:16:05;;;;;;;52.90;8.07;;;15.20;5.30;;;;;;5026476;28;20402;-83
2023/09/07 06:18:30;;;;;;;51.40;8.10;;;15.20;4.70;;;;;;5032291;28;20511;-82
2023/09/07 06:21:11;;;;;;;47.93;7.93;;;15.30;7.00;;;;;;5030875;28;20447;-82
2023/09/07 06:23:59;;;;;;;50.70;8.47;;;15.70;6.30;;;;;;5023598;28;20609;-82
2023/09/07 06:26:25;;;;;;;46.17;6.90;;;15.50;5.60;;;;;;5047872;28;20469;-83
2023/09/07 06:29:05;;;;;;;45.57;7.37;;;15.70;4.80;;;;;;5020571;28;20784;-81
2023/09/07 06:31:35;;;;;;;49.40;7.37;;;15.80;3.90;;;;;;5029270;28;20528;-91
2023/09/07 06:34:22;;;;;;;47.67;7.57;;;15.90;1.70;;;;;;5028761;28;20434;-91
2023/09/07 06:37:05;;;;;;;48.30;7.60;;;16.00;1.00;;;;;;5019923;28;20432;-92
2023/09/07 06:39:35;;;;;;;53.60;7.13;;;16.20;1.00;;;;;;5025178;28;20452;-88
2023/09/07 06:45:23;;;;;;;52.20;7.60;;;;;;;;;;5021726;28;20942;-83
2023/09/07 06:48:05;;;;;;;48.20;8.60;;;16.70;1.00;;;;;;5015117;28;20757;-83
2023/09/07 06:54:11;;;;;;;55.80;7.50;;;17.00;1.00;;;;;;5016385;28;20436;-82
2023/09/07 07:00:34;;;;;;;54.60;8.17;;;17.50;1.00;;;;;;5025799;28;20424;-88
2023/09/07 07:03:47;;;;;;;53.80;7.20;;;17.50;1.00;;;;;;5022936;28;20481;-88
2023/09/07 07:06:13;;;;;;;53.03;7.17;;;17.70;1.00;;;;;;5034497;28;20434;-88
2023/09/07 07:09:05;;;;;;;52.90;7.50;;;17.90;1.00;;;;;;5020765;28;20430;-88
2023/09/07 07:11:47;;;;;;;48.30;7.20;;;18.00;1.00;;;;;;5030748;28;20828;-88
2023/09/07 07:14:34;;;;;;;48.23;7.17;;;18.20;1.00;;;;;;5028434;28;20438;-88
2023/09/07 07:17:04;;;;;;;46.07;6.67;;;18.30;1.00;;;;;;5033341;28;20431;-88
2023/09/07 07:19:30;;;;;;;45.27;6.33;;;18.50;1.00;;;;;;5028833;28;20506;-88
2023/09/07 07:22:05;;;;;;;49.00;6.60;;;18.60;1.00;;;;;;5029281;28;20462;-88
2023/09/07 07:24:35;;;;;;;43.87;6.50;;;18.70;1.00;;;;;;5034013;28;20431;-88
2023/09/07 07:27:05;;;;;;;49.20;6.40;;;18.90;1.00;;;;;;5037653;28;20444;-88
2023/09/07 07:29:47;;;;;;;44.13;6.43;;;19.10;1.00;;;;;;5033173;28;20399;-83
2023/09/07 07:32:23;;;;;;;45.00;6.73;;;19.20;1.00;;;;;;5030676;28;20453;-82
2023/09/07 07:35:05;;;;;;;53.10;6.90;;;19.40;1.00;;;;;;5035051;28;20778;-82
2023/09/07 07:37:35;;;;;;;42.77;6.50;;;;;;;;;;5033175;28;20479;-83
2023/09/07 07:40:05;;;;;;;49.43;6.10;;;19.70;1.00;;;;;;5033925;28;20431;-82
2023/09/07 07:42:35;;;;;;;50.97;6.10;;;19.80;1.00;;;;;;5034474;28;20391;-83
2023/09/07 07:45:05;;;;;;;45.37;6.00;;;19.90;1.00;;;;;;5035317;28;20431;-88
2023/09/07 07:47:31;;;;;;;45.40;6.30;;;20.10;1.00;;;;;;5028275;28;20500;-88
2023/09/07 07:50:07;;;;;;;44.00;5.30;;;20.20;1.00;;;;;;5031620;28;20939;-89
2023/09/07 07:52:53;;;;;;;44.97;6.07;;;20.30;1.00;;;;;;5031592;28;20424;-89
2023/09/07 07:55:29;;;;;;;41.53;5.50;;;20.50;1.00;;;;;;5028479;28;20975;-89
2023/09/07 08:01:20;;;;;;;43.40;5.63;;;20.80;1.00;;;;;;5031006;28;20449;-82
2023/09/07 08:04:29;;;;;;;44.20;5.90;;;20.90;1.00;;;;;;5031913;28;20504;-82
2023/09/07 08:06:58;;;;;;;47.37;6.13;;;21.00;1.00;;;;;;5035148;28;20429;-82
2023/09/07 08:09:30;;;;;;;46.47;5.80;;;21.20;1.00;;;;;;5028076;28;20425;-82
2023/09/07 08:12:02;;;;;;;47.00;6.00;;;21.30;1.00;;;;;;5022567;28;20873;-83
2023/09/07 08:14:35;;;;;;;45.53;5.27;;;21.40;1.00;;;;;;5026233;28;20436;-82
2023/09/07 08:17:35;;;;;;;42.70;5.77;;;21.50;1.00;;;;;;5023123;28;20436;-89
2023/09/07 08:20:24;;;;;;;41.10;5.97;;;21.60;1.00;;;;;;5035683;28;20926;-89
2023/09/07 08:23:11;;;;;;;39.30;4.70;;;21.70;1.00;;;;;;5026136;28;20434;-89
2023/09/07 08:26:05;;;;;;;40.80;5.67;;;21.80;1.00;;;;;;5016041;28;20428;-89
2023/09/07 08:28:35;;;;;;;52.53;6.87;;;22.00;1.00;;;;;;5022294;28;20474;-90
2023/09/07 08:31:05;;;;;;;43.47;5.90;;;22.00;1.00;;;;;;5026052;28;20423;-89
2023/09/07 08:33:54;;;;;;;43.83;5.70;;;22.00;1.00;;;;;;5030679;28;20541;-90
2023/09/07 08:36:35;;;;;;;43.07;5.90;;;22.20;1.00;;;;;;5031194;28;20424;-90
2023/09/07 08:39:07;;;;;;;41.63;5.30;;;;;;;;;;5034061;28;20469;-89
2023/09/07 08:45:08;;;;;;;38.40;5.07;;;;;;;;;;5030533;28;20435;-89
2023/09/07 08:48:05;;;;;;;40.70;5.07;;;22.60;1.00;;;;;;5032624;28;20428;-89
2023/09/07 08:50:31;;;;;;;37.70;5.23;;;22.70;1.00;;;;;;5026106;28;20440;-90
2023/09/07 08:53:07;;;;;;;45.63;4.77;;;22.80;1.00;;;;;;5031780;28;20430;-90
2023/09/07 08:55:35;;;;;;;41.07;5.00;;;22.90;1.00;;;;;;5031293;28;20414;-91
2023/09/07 08:58:05;;;;;;;40.93;5.23;;;;;;;;;;5024350;28;20477;-91
2023/09/07 09:00:37;;;;;;;41.90;5.63;;;23.20;1.00;;;;;;5032270;28;20454;-90
2023/09/07 09:06:24;;;;;;;38.50;5.27;;;23.40;1.00;;;;;;5029593;28;20790;-90
2023/09/07 09:09:05;;;;;;;41.13;5.60;;;23.50;1.00;;;;;;5024642;28;20429;-90
2023/09/07 09:11:35;;;;;;;38.57;4.53;;;23.60;1.00;;;;;;5034275;28;20446;-91
2023/09/07 09:14:06;;;;;;;70.17;5.70;;;23.70;1.00;;;;;;5029044;28;20846;-90
2023/09/07 09:16:35;;;;;;;38.00;5.50;;;23.90;1.00;;;;;;5034475;28;20440;-83
2023/09/07 09:19:00;;;;;;;39.40;5.30;;;23.90;1.00;;;;;;5018525;28;21049;-83
2023/09/07 09:21:35;;;;;;;37.63;5.10;;;23.90;1.00;;;;;;5028891;28;20525;-83
2023/09/07 09:24:10;;;;;;;41.13;5.23;;;24.10;1.00;;;;;;5032172;28;20182;-83
2023/09/07 09:30:22;;;;;;;39.60;5.80;;;24.20;1.00;;;;;;5023681;28;20771;-82
2023/09/07 09:32:48;;;;;;;46.03;5.07;;;24.30;1.00;;;;;;5031820;28;20425;-91
2023/09/07 09:35:42;;;;;;;39.20;5.90;;;24.40;1.00;;;;;;5032914;28;20440;-91
2023/09/07 09:38:24;;;;;;;38.80;5.10;;;24.50;1.00;;;;;;5023108;28;20457;-91
2023/09/07 09:41:42;;;;;;;42.80;6.20;;;24.60;1.00;;;;;;5017929;28;20546;-91
2023/09/07 09:44:29;;;;;;;37.10;5.23;;;24.70;1.00;;;;;;5029143;28;20907;-91
2023/09/07 09:53:42;;;;;;;37.07;5.03;;;24.90;1.00;;;;;;5026103;28;20923;-90
2023/09/07 09:59:35;;;;;;;37.63;5.13;;;25.20;1.00;;;;;;5026364;28;20476;-91
2023/09/07 10:09:10;;;;;;;41.17;5.27;;;25.60;1.00;;;;;;5024521;28;20424;-92
2023/09/07 10:11:53;;;;;;;41.03;5.80;;;25.70;1.00;;;;;;5024775;28;20447;-92
2023/09/07 10:14:51;;;;;;;38.10;5.03;;;25.60;1.00;;;;;;5031191;28;20448;-92
2023/09/07 10:17:58;;;;;;;40.10;5.10;;;25.80;1.00;;;;;;4996158;28;20438;-92
2023/09/07 10:20:24;;;;;;;40.90;5.43;;;25.80;1.00;;;;;;5015496;28;20543;-90
2023/09/07 10:23:04;;;;;;;38.77;4.90;;;26.00;1.00;;;;;;5024797;28;20528;-92
2023/09/07 10:25:53;;;;;;;40.03;5.47;;;26.00;1.00;;;;;;5024412;28;20234;-92
2023/09/07 10:28:21;;;;;;;44.30;5.40;;;26.20;1.00;;;;;;5011245;28;20915;-93
2023/09/07 10:31:07;;;;;;;38.57;5.30;;;26.20;1.00;;;;;;5022260;28;20433;-90
2023/09/07 10:34:12;;;;;;;42.43;5.40;;;26.40;1.00;;;;;;5026720;28;20441;-83
2023/09/07 10:36:41;;;;;;;40.40;6.13;;;26.40;1.00;;;;;;5020038;28;20437;-84
2023/09/07 10:39:12;;;;;;;47.80;5.10;;;26.50;1.00;;;;;;5025515;28;20467;-82
2023/09/07 10:45:10;;;;;;;38.00;5.80;;;26.70;1.00;;;;;;5017326;28;20930;-83
2023/09/07 10:47:48;;;;;;;39.00;5.13;;;26.80;1.00;;;;;;5033549;28;20440;-94
2023/09/07 10:50:17;;;;;;;39.47;5.23;;;26.80;1.00;;;;;;5018310;28;20938;-92
2023/09/07 10:59:30;;;;;;;37.90;5.43;;;27.10;1.00;;;;;;5032284;28;20508;-94
2023/09/07 11:12:16;;;;;;;41.00;4.80;;;27.70;1.00;;;;;;5284613;23;20637;-91
2023/09/07 11:14:48;;;;;;;36.63;4.97;;;27.70;1.00;;;;;;4995446;28;20494;-96
2023/09/07 11:24:10;;;;;;;34.97;4.90;;;27.90;1.00;;;;;;4978699;28;20388;-95
2023/09/07 11:26:51;;;;;;;37.30;5.37;;;28.00;1.00;;;;;;4983051;28;20418;-85
2023/09/07 11:29:18;;;;;;;35.50;5.20;;;28.00;1.00;;;;;;4998695;28;20192;-85
2023/09/07 11:31:44;;;;;;;34.17;4.60;;;28.10;1.00;;;;;;4998893;28;20422;-85
2023/09/07 11:34:12;;;;;;;35.30;4.50;;;28.30;1.00;;;;;;4993382;28;20466;-86
2023/09/07 11:36:39;;;;;;;33.90;4.70;;;28.30;1.00;;;;;;4998318;28;20522;-85
2023/09/07 11:39:15;;;;;;;37.10;4.60;;;28.40;1.00;;;;;;4995812;28;20446;-85
2023/09/07 11:41:51;;;;;;;44.17;4.60;;;28.50;1.00;;;;;;4995968;28;20443;-96
2023/09/07 11:51:27;;;;;;;36.67;5.07;;;28.60;1.00;;;;;;4978113;28;20459;-95
2023/09/07 11:57:16;;;;;;;35.00;5.10;;;28.70;1.00;;;;;;4982735;28;20439;-85
2023/09/07 11:59:51;;;;;;;34.43;5.10;;;28.80;1.00;;;;;;4996026;28;20560;-84
2023/09/07 12:02:17;;;;;;;33.97;5.00;;;28.90;1.00;;;;;;4988798;28;20524;-84
2023/09/07 12:08:05;;;;;;;33.40;4.50;;;29.20;1.00;;;;;;4990806;28;20949;-85
2023/09/07 12:10:39;;;;;;;34.43;4.17;;;29.20;1.00;;;;;;4994407;28;20965;-85
2023/09/07 12:13:05;;;;;;;32.23;3.73;;;29.30;1.00;;;;;;4967841;28;20452;-82
2023/09/07 12:15:31;;;;;;;34.00;4.10;;;29.30;1.00;;;;;;4994747;28;20532;-83
2023/09/07 12:18:15;;;;;;;30.97;3.80;;;29.40;1.00;;;;;;4994400;28;20280;-83
2023/09/07 12:21:09;;;;;;;33.97;3.83;;;29.50;1.00;;;;;;4996067;28;20184;-83
2023/09/07 12:24:09;;;;;;;33.47;3.93;;;29.50;1.00;;;;;;4990010;28;20433;-84
2023/09/07 12:26:45;;;;;;;33.20;4.20;;;29.60;1.00;;;;;;5004409;28;20798;-82
2023/09/07 12:29:21;;;;;;;40.60;4.57;;;29.60;1.00;;;;;;4983854;28;20445;-83
2023/09/07 12:31:57;;;;;;;32.00;3.90;;;29.70;1.00;;;;;;4986713;28;20424;-82
2023/09/07 12:34:45;;;;;;;31.60;3.70;;;29.80;1.00;;;;;;4995110;28;20979;-87
2023/09/07 12:37:45;;;;;;;33.97;4.30;;;29.70;1.00;;;;;;4993072;28;20425;-82
2023/09/07 12:40:15;;;;;;;35.70;4.03;;;29.80;1.00;;;;;;4976566;28;20406;-84
2023/09/07 12:43:03;;;;;;;30.93;3.67;;;29.80;1.00;;;;;;5004057;28;20896;-85
2023/09/07 12:45:39;;;;;;;32.40;4.60;;;29.80;1.00;;;;;;4988200;28;20490;-84
2023/09/07 12:48:57;;;;;;;32.83;4.13;;;29.90;1.00;;;;;;4994308;28;20494;-83
2023/09/07 12:51:51;;;;;;;33.30;3.93;;;30.00;1.00;;;;;;4998276;28;20455;-89
2023/09/07 12:54:21;;;;;;;33.53;4.77;;;30.00;1.00;;;;;;4983643;28;21022;-83
2023/09/07 13:07:40;;;;;;;30.97;4.10;;;30.00;1.00;;;;;;4994589;28;20487;-90
2023/09/07 13:13:28;;;;;;;31.97;4.00;;;30.10;1.00;;;;;;4983075;28;20475;-90
2023/09/07 13:16:27;;;;;;;34.93;3.67;;;30.20;1.00;;;;;;4993379;28;20858;-90
2023/09/07 13:22:27;;;;;;;31.30;3.90;;;30.20;1.00;;;;;;4989634;28;20553;-90
2023/09/07 13:28:21;;;;;;;31.87;3.80;;;30.30;1.00;;;;;;4993589;28;20942;-82
2023/09/07 13:30:57;;;;;;;31.00;4.10;;;;;;;;;;4993801;28;20447;-82
2023/09/07 13:33:23;;;;;;;34.03;3.80;;;30.40;1.00;;;;;;4985798;28;20441;-82
2023/09/07 13:36:22;;;;;;;30.30;3.70;;;30.40;1.00;;;;;;4993263;28;20436;-84
2023/09/07 13:38:51;;;;;;;33.03;3.80;;;30.50;1.00;;;;;;4991303;28;20205;-82
2023/09/07 13:41:45;;;;;;;30.83;3.70;;;30.60;1.00;;;;;;4992645;28;20451;-83
2023/09/07 13:44:13;;;;;;;29.80;3.50;;;30.70;1.00;;;;;;4993267;28;20437;-91
2023/09/07 13:50:21;;;;;;;31.87;3.73;;;30.60;1.00;;;;;;4988753;28;20435;-88
2023/09/07 13:56:33;;;;;;;32.63;3.70;;;30.70;1.00;;;;;;4994993;28;20459;-92
2023/09/07 13:59:15;;;;;;;33.57;4.33;;;30.70;1.00;;;;;;4995528;28;20453;-85
2023/09/07 14:02:03;;;;;;;32.67;3.53;;;30.70;1.00;;;;;;5014193;28;20966;-87
2023/09/07 14:07:57;;;;;;;30.20;3.40;;;30.70;1.00;;;;;;4982950;28;20447;-86
2023/09/07 14:10:23;;;;;;;34.67;3.23;;;30.70;1.00;;;;;;4990263;28;21025;-86
2023/09/07 14:12:48;;;;;;;32.90;3.60;;;30.70;1.00;;;;;;4988855;28;20444;-85
2023/09/07 14:15:14;;;;;;;32.47;4.10;;;30.80;1.00;;;;;;4991651;28;20557;-85
2023/09/07 14:17:40;;;;;;;32.63;3.80;;;30.80;1.00;;;;;;4999907;28;20709;-86
2023/09/07 14:23:28;;;;;;;32.37;3.70;;;30.90;1.00;;;;;;4980008;28;20192;-84
2023/09/07 14:26:27;;;;;;;31.60;3.70;;;30.80;1.00;;;;;;4991931;28;20429;-86
2023/09/07 14:32:48;;;;;;;30.97;3.57;;;30.90;1.00;;;;;;4975221;28;20417;-93
2023/09/07 14:35:33;;;;;;;31.27;3.30;;;30.80;1.00;;;;;;4991901;28;20440;-92
2023/09/07 14:41:22;;;;;;;32.50;3.50;;;30.70;1.00;;;;;;4994455;28;20431;-93
2023/09/07 14:47:10;;;;;;;32.90;3.93;;;30.70;1.00;;;;;;5003323;28;20395;-85
2023/09/07 14:49:52;;;;;;;31.93;3.20;;;30.70;1.00;;;;;;4993494;28;20433;-84
2023/09/07 14:52:24;;;;;;;30.40;3.60;;;30.80;1.00;;;;;;4992009;28;20424;-83
2023/09/07 14:58:57;;;;;;;30.50;3.40;;;30.80;1.00;;;;;;4986377;28;20556;-85
2023/09/07 15:01:23;;;;;;;35.27;3.20;;;31.50;1.00;;;;;;4990067;28;20441;-90
2023/09/07 15:07:11;;;;;;;33.77;3.53;;;33.70;1.00;;;;;;4989152;28;20189;-91
2023/09/07 15:09:53;;;;;;;31.37;3.00;;;35.10;1.00;;;;;;4993210;28;20812;-87
2023/09/07 15:12:39;;;;;;;30.43;3.60;;;36.10;1.00;;;;;;4992812;28;20205;-86
2023/09/07 15:15:36;;;;;;;33.17;2.87;;;37.20;1.00;;;;;;4991403;28;20463;-83
2023/09/07 15:18:21;;;;;;;29.60;3.10;;;38.40;1.00;;;;;;4991213;28;20962;-83
2023/09/07 15:21:03;;;;;;;26.87;2.83;;;39.60;1.00;;;;;;4993934;28;20408;-84
2023/09/07 15:23:33;;;;;;;27.20;2.90;;;40.50;1.00;;;;;;4993675;28;20448;-84
2023/09/07 15:26:38;;;;;;;27.60;2.70;;;41.10;1.00;;;;;;4993287;28;20428;-84
2023/09/07 15:29:21;;;;;;;25.10;2.40;;;41.70;1.00;;;;;;4989961;28;20445;-83
2023/09/07 15:35:27;;;;;;;30.93;2.90;;;43.50;1.00;;;;;;4993700;28;20432;-93
2023/09/07 15:37:57;;;;;;;26.17;2.70;;;43.90;1.00;;;;;;4995156;28;20486;-93
2023/09/07 15:43:45;;;;;;;25.97;2.80;;;44.70;1.00;;;;;;4994867;28;20463;-92
2023/09/07 15:46:10;;;;;;;26.67;2.60;;;45.30;1.00;;;;;;4994428;28;20432;-89
2023/09/07 15:48:52;;;;;;;26.50;2.40;;;45.30;1.00;;;;;;4995280;28;20545;-87
2023/09/07 15:51:27;;;;;;;26.60;2.83;;;45.50;1.00;;;;;;4995442;28;20199;-85
2023/09/07 15:53:53;;;;;;;24.93;2.30;;;45.80;1.00;;;;;;4996291;28;20451;-84
2023/09/07 15:56:39;;;;;;;28.40;2.60;;;45.90;1.00;;;;;;4994695;28;20866;-83
2023/09/07 15:59:27;;;;;;;24.97;2.33;;;46.00;1.00;;;;;;4998355;28;20229;-84
2023/09/07 16:01:57;;;;;;;25.87;2.27;;;46.10;1.00;;;;;;4997130;28;20409;-85
2023/09/07 16:04:33;;;;;;;25.43;2.33;;;46.20;1.00;;;;;;4993185;28;20897;-85
2023/09/07 16:07:15;;;;;;;26.80;2.50;;;46.40;1.00;;;;;;4994228;28;20931;-85
2023/09/07 16:09:51;;;;;;;24.33;2.30;;;46.50;1.00;;;;;;4996174;28;20967;-85
2023/09/07 16:12:57;;;;;;;24.80;2.20;;;46.50;1.00;;;;;;5022655;28;20464;-86
2023/09/07 16:18:44;;;;;;;26.17;2.10;;;44.70;1.00;;;;;;4996254;28;20493;-92
2023/09/07 16:24:32;;;;;;;27.83;2.97;;;42.00;1.00;;;;;;4997317;28;20667;-94
2023/09/07 16:27:40;;;;;;;27.17;2.70;;;41.30;1.00;;;;;;4997550;28;20945;-94
2023/09/07 16:30:10;;;;;;;28.07;2.50;;;41.50;1.00;;;;;;4995331;28;20467;-88
2023/09/07 16:32:41;;;;;;;28.67;3.10;;;42.00;1.00;;;;;;4995406;28;20945;-85
2023/09/07 16:38:28;;;;;;;28.67;3.03;;;42.80;1.00;;;;;;4994564;28;20480;-86
2023/09/07 16:40:57;;;;;;;29.50;2.40;;;43.30;1.00;;;;;;4994614;28;20500;-86
2023/09/07 16:43:34;;;;;;;26.57;2.70;;;43.00;1.00;;;;;;4992859;28;20193;-86
2023/09/07 16:49:21;;;;;;;30.30;3.33;;;40.80;1.00;;;;;;4998020;28;20444;-90
2023/09/07 16:55:57;;;;;;;30.00;3.23;;;38.50;1.00;;;;;;4996596;28;20617;-91
2023/09/07 17:01:45;;;;;;;35.60;4.20;;;35.80;1.00;;;;;;4995339;28;20463;-90
2023/09/07 17:07:32;;;;;;;34.70;4.20;;;33.50;1.00;;;;;;4994593;28;20265;-95
2023/09/07 17:13:22;;;;;;;35.40;4.20;;;31.50;1.00;;;;;;4976351;28;20226;-93
2023/09/07 17:16:15;;;;;;;45.03;4.80;;;30.10;1.00;;;;;;5009209;28;20908;-89
2023/09/07 17:19:09;;;;;;;34.87;3.90;;;29.90;1.00;;;;;;5010948;28;20499;-96
2023/09/07 17:21:35;;;;;;;37.93;4.30;;;29.20;1.00;;;;;;4985749;28;20454;-91
2023/09/07 17:24:21;;;;;;;34.03;4.20;;;28.70;1.00;;;;;;4994647;28;20440;-94
2023/09/07 17:30:10;;;;;;;35.17;4.20;;;27.70;1.00;;;;;;4995365;28;20535;-92
2023/09/07 17:39:39;;;;;;;35.70;4.60;;;26.30;1.00;;;;;;4994523;28;20434;-91
2023/09/07 17:42:45;;;;;;;35.90;4.70;;;25.80;1.00;;;;;;4988165;28;20491;-92
2023/09/07 17:45:45;;;;;;;40.23;5.00;;;25.60;1.00;;;;;;4993680;28;20477;-89
2023/09/07 17:48:27;;;;;;;38.50;4.77;;;25.20;1.00;;;;;;4993334;28;20505;-85
2023/09/07 17:50:57;;;;;;;43.47;5.40;;;24.90;1.00;;;;;;5012381;28;20427;-88
2023/09/07 17:53:39;;;;;;;36.60;4.50;;;24.60;1.00;;;;;;4993429;28;20443;-88